Terminal Aerodrome Forecast
Issued by NWS

Home | Current Version | Previous Version | Text Only | Print | Product List | Glossary On
Versions: 1 2 3 4 5 6 7 8 9 10 11 12
000
FTUS45 KGJT 251744
TAFVEL
TAF
KVEL 251744Z 2518/2618 15004KT P6SM SKC
     FM252200 21004KT P6SM FEW250
     FM260100 26007KT P6SM SCT250
     FM261400 15003KT P6SM BKN200=

USA.gov is the U.S. government's official web portal to all federal, state and local government web resources and services.